Time;durP1;ratioP1;P1;durP2;ratioP2;P2;SDS_P1;SDS_P2;PMS_P1;PMS_P2;Temp;Humidity;BMP_temperature;BMP_pressure;BME280_temperature;BME280_humidity;BME280_pressure;Samples;Min_cycle;Max_cycle;Signal;HPM_P1;HPM_P2
2021/01/19 00:00:45;;;;;;;15.87;9.17;;;5.00;98.30;;;;;;5149472;23;21284;-81
2021/01/19 00:02:52;;;;;;;13.47;7.03;;;5.00;98.30;;;;;;5149807;23;20520;-81
2021/01/19 00:04:56;;;;;;;14.13;8.20;;;5.00;98.30;;;;;;5149156;23;20456;-81
2021/01/19 00:07:01;;;;;;;16.48;9.15;;;5.00;98.30;;;;;;5148135;23;20450;-81
2021/01/19 00:09:09;;;;;;;10.63;7.70;;;5.00;98.30;;;;;;5148033;23;20226;-81
2021/01/19 00:11:20;;;;;;;23.90;10.17;;;5.00;98.30;;;;;;5148147;23;20456;-81
2021/01/19 00:13:28;;;;;;;17.60;9.90;;;5.00;98.30;;;;;;5148124;23;20456;-81
2021/01/19 00:15:31;;;;;;;13.80;8.90;;;5.00;98.30;;;;;;5148175;23;20898;-81
2021/01/19 00:17:37;;;;;;;14.85;9.00;;;5.00;98.30;;;;;;5148502;23;20513;-81
2021/01/19 00:19:54;;;;;;;11.93;8.30;;;5.00;98.30;;;;;;5147447;23;20203;-81
2021/01/19 00:22:03;;;;;;;21.43;9.63;;;5.00;98.30;;;;;;5148438;23;20452;-81
2021/01/19 00:24:10;;;;;;;12.90;8.38;;;5.00;98.30;;;;;;5148214;23;20452;-81
2021/01/19 00:26:14;;;;;;;15.97;8.87;;;5.00;98.30;;;;;;5148352;23;20198;-80
2021/01/19 00:28:22;;;;;;;16.23;9.10;;;4.90;98.30;;;;;;5148475;23;20547;-81
2021/01/19 00:30:30;;;;;;;12.43;7.73;;;4.90;98.30;;;;;;5149018;23;20448;-81
2021/01/19 00:32:36;;;;;;;15.90;9.10;;;5.00;98.30;;;;;;5148387;23;20458;-80
2021/01/19 00:34:39;;;;;;;20.43;8.90;;;5.00;98.30;;;;;;5147162;23;20769;-81
2021/01/19 00:36:50;;;;;;;19.80;9.30;;;5.00;98.30;;;;;;5147730;23;20507;-81
2021/01/19 00:38:53;;;;;;;14.67;9.20;;;5.00;98.30;;;;;;5148052;23;20533;-81
2021/01/19 00:41:01;;;;;;;15.13;9.13;;;4.90;98.30;;;;;;5149310;23;20476;-80
2021/01/19 00:43:06;;;;;;;15.77;9.43;;;4.90;98.30;;;;;;5148891;23;21280;-80
2021/01/19 00:45:09;;;;;;;16.50;9.50;;;4.90;98.30;;;;;;5149124;23;20449;-80
2021/01/19 00:47:16;;;;;;;20.60;10.33;;;5.00;98.30;;;;;;5148374;23;20455;-80
2021/01/19 00:49:30;;;;;;;14.90;9.67;;;4.90;98.30;;;;;;5148877;23;20457;-80
2021/01/19 00:51:36;;;;;;;22.53;10.40;;;5.00;98.30;;;;;;5148857;23;20469;-80
2021/01/19 00:53:43;;;;;;;22.07;10.97;;;4.90;98.30;;;;;;5140910;23;20456;-80
2021/01/19 00:55:50;;;;;;;21.83;10.90;;;4.90;98.30;;;;;;5148864;23;20508;-80
2021/01/19 00:58:09;;;;;;;19.33;11.70;;;4.90;98.30;;;;;;5148028;23;20828;-81
2021/01/19 01:00:14;;;;;;;17.10;10.00;;;5.00;98.30;;;;;;5148615;23;20842;-80
2021/01/19 01:02:20;;;;;;;18.33;10.63;;;4.90;98.30;;;;;;5148434;23;20863;-80
2021/01/19 01:04:22;;;;;;;26.70;11.50;;;4.90;98.30;;;;;;5149019;23;20451;-80
2021/01/19 01:06:24;;;;;;;15.80;9.80;;;4.90;98.30;;;;;;5140724;23;20457;-80
2021/01/19 01:08:28;;;;;;;19.67;10.30;;;4.90;98.30;;;;;;5148806;23;20511;-80
2021/01/19 01:10:36;;;;;;;23.13;12.20;;;4.90;98.30;;;;;;5148960;23;20252;-80
2021/01/19 01:12:40;;;;;;;18.13;9.87;;;4.90;98.30;;;;;;5149308;23;20449;-81
2021/01/19 01:15:11;;;;;;;19.13;11.53;;;4.90;98.30;;;;;;5148724;23;20449;-81
2021/01/19 01:17:33;;;;;;;19.15;12.13;;;4.90;98.30;;;;;;5148879;23;20453;-81
2021/01/19 01:19:37;;;;;;;23.40;10.93;;;4.90;98.30;;;;;;5148995;23;20209;-81
2021/01/19 01:21:49;;;;;;;16.47;8.70;;;4.90;98.30;;;;;;5140855;23;20854;-80
2021/01/19 01:23:57;;;;;;;18.00;12.40;;;4.90;98.30;;;;;;5150500;23;20518;-81
2021/01/19 01:26:09;;;;;;;19.00;11.50;;;4.90;98.30;;;;;;5152223;23;20456;-81
2021/01/19 01:28:22;;;;;;;21.47;11.17;;;4.90;98.30;;;;;;5149075;23;20527;-81
2021/01/19 01:30:25;;;;;;;13.20;9.05;;;4.90;98.30;;;;;;5148854;23;20787;-81
2021/01/19 01:32:37;;;;;;;18.30;11.60;;;4.90;98.30;;;;;;5149302;23;20277;-81
2021/01/19 01:34:50;;;;;;;24.10;12.60;;;4.90;98.30;;;;;;5148856;23;20201;-81
2021/01/19 01:36:53;;;;;;;18.17;11.30;;;4.90;98.30;;;;;;5148442;23;21019;-81
2021/01/19 01:39:00;;;;;;;13.80;9.70;;;4.90;98.30;;;;;;5149139;23;20818;-81
2021/01/19 01:41:03;;;;;;;23.60;13.70;;;4.90;98.30;;;;;;5149310;23;20499;-81
2021/01/19 01:43:30;;;;;;;19.45;12.18;;;4.90;98.30;;;;;;5149109;23;20209;-81
2021/01/19 01:45:33;;;;;;;20.93;11.80;;;4.90;98.30;;;;;;5148349;23;20276;-81
2021/01/19 01:47:45;;;;;;;23.48;12.98;;;4.90;98.30;;;;;;5148756;23;20452;-81
2021/01/19 01:49:58;;;;;;;23.53;14.03;;;4.90;98.30;;;;;;5148146;23;20202;-81
2021/01/19 01:52:08;;;;;;;22.53;13.77;;;4.90;98.30;;;;;;5149143;23;20456;-80
2021/01/19 01:54:19;;;;;;;22.50;11.70;;;4.90;98.30;;;;;;5148603;23;20445;-81
2021/01/19 01:56:24;;;;;;;22.77;13.00;;;4.90;98.30;;;;;;5148347;23;20783;-81
2021/01/19 01:58:34;;;;;;;21.20;12.93;;;4.80;98.30;;;;;;5149946;23;20260;-80
2021/01/19 02:01:13;;;;;;;18.47;11.57;;;4.90;98.30;;;;;;5148029;23;20536;-80
2021/01/19 02:04:21;;;;;;;26.90;14.60;;;4.80;98.30;;;;;;5140468;23;20462;-80
2021/01/19 02:06:44;;;;;;;26.20;13.60;;;4.80;98.30;;;;;;5148772;23;20530;-81
2021/01/19 02:09:10;;;;;;;22.13;13.02;;;4.70;98.30;;;;;;5148655;23;21023;-80
2021/01/19 02:11:27;;;;;;;17.52;11.95;;;4.70;98.30;;;;;;5140710;23;20288;-80
2021/01/19 02:14:03;;;;;;;21.50;11.47;;;4.70;98.30;;;;;;5139807;23;20206;-80
2021/01/19 02:16:27;;;;;;;20.23;12.40;;;4.70;98.30;;;;;;5148700;23;20456;-80
2021/01/19 02:18:49;;;;;;;17.88;11.43;;;4.70;98.30;;;;;;5148449;23;20499;-80
2021/01/19 02:21:04;;;;;;;24.87;13.97;;;4.70;98.30;;;;;;5147039;23;20599;-81
2021/01/19 02:23:19;;;;;;;24.47;12.70;;;4.70;98.30;;;;;;5148509;23;20444;-80
2021/01/19 02:25:32;;;;;;;21.33;13.40;;;4.70;98.30;;;;;;5148430;23;20449;-81
2021/01/19 02:27:57;;;;;;;25.05;14.70;;;4.60;98.30;;;;;;5149055;23;20774;-80
2021/01/19 02:30:39;;;;;;;25.80;15.20;;;4.60;98.30;;;;;;5148960;23;20205;-81
2021/01/19 02:33:08;;;;;;;30.10;16.43;;;4.60;98.30;;;;;;5148817;23;20448;-80
2021/01/19 02:35:29;;;;;;;22.03;13.53;;;4.60;98.30;;;;;;5139058;23;20453;-80
2021/01/19 02:38:12;;;;;;;26.60;16.23;;;4.60;98.30;;;;;;5139480;23;20441;-81
2021/01/19 02:40:28;;;;;;;33.30;16.92;;;4.60;98.30;;;;;;5148443;23;20437;-81
2021/01/19 02:42:45;;;;;;;29.65;16.95;;;4.50;98.30;;;;;;5148301;23;20209;-81
2021/01/19 02:44:52;;;;;;;27.63;16.90;;;4.50;98.30;;;;;;5148775;23;20533;-81
2021/01/19 02:47:00;;;;;;;30.02;15.70;;;4.50;98.30;;;;;;5148443;23;20217;-80
2021/01/19 02:49:07;;;;;;;26.52;15.07;;;4.50;98.30;;;;;;5148512;23;20205;-80
2021/01/19 02:51:09;;;;;;;30.45;14.88;;;4.40;98.30;;;;;;5148348;23;20260;-80
2021/01/19 02:53:15;;;;;;;26.40;14.77;;;4.40;98.30;;;;;;5148701;23;20209;-80
2021/01/19 02:55:20;;;;;;;37.70;17.13;;;4.40;98.30;;;;;;5140703;23;20300;-81
2021/01/19 02:57:31;;;;;;;28.90;15.50;;;4.40;98.30;;;;;;5150393;23;20237;-80
2021/01/19 02:59:47;;;;;;;33.72;17.80;;;4.40;98.30;;;;;;5150248;23;20240;-80
2021/01/19 03:02:16;;;;;;;30.13;15.23;;;4.40;98.30;;;;;;5150484;23;20713;-79
2021/01/19 03:04:22;;;;;;;30.98;16.23;;;4.40;98.30;;;;;;5150686;23;20510;-80
2021/01/19 03:06:32;;;;;;;35.40;17.23;;;4.40;98.30;;;;;;5149517;23;20205;-79
2021/01/19 03:08:35;;;;;;;33.90;19.73;;;4.40;98.30;;;;;;5149625;23;20201;-79
2021/01/19 03:10:44;;;;;;;36.15;16.38;;;4.40;98.30;;;;;;5149567;23;20558;-82
2021/01/19 03:12:48;;;;;;;31.87;16.60;;;4.40;98.30;;;;;;5149389;23;20665;-80
2021/01/19 03:15:17;;;;;;;36.08;18.08;;;4.40;98.30;;;;;;5148721;23;20965;-80
2021/01/19 03:20:24;;;;;;;37.05;19.77;;;4.40;98.30;;;;;;5149638;23;20202;-82
2021/01/19 03:22:45;;;;;;;33.90;19.83;;;4.50;98.30;;;;;;5149450;23;20221;-81
2021/01/19 03:24:51;;;;;;;39.33;19.50;;;4.50;98.30;;;;;;5149649;23;20452;-80
2021/01/19 03:26:54;;;;;;;37.50;19.60;;;4.50;98.30;;;;;;5149833;23;20209;-80
2021/01/19 03:28:58;;;;;;;40.53;20.10;;;4.50;98.30;;;;;;5149619;23;20282;-80
2021/01/19 03:31:18;;;;;;;33.53;20.17;;;4.50;98.30;;;;;;5141529;23;20487;-80
2021/01/19 03:34:03;;;;;;;35.50;18.43;;;4.50;98.30;;;;;;5149507;23;20259;-81
2021/01/19 03:36:14;;;;;;;40.20;22.10;;;4.50;98.30;;;;;;5150239;23;20509;-81
2021/01/19 03:38:17;;;;;;;39.43;20.40;;;4.50;98.30;;;;;;5150082;23;21117;-81
2021/01/19 03:40:22;;;;;;;39.40;21.60;;;4.50;98.30;;;;;;5148734;23;21065;-81
2021/01/19 03:42:25;;;;;;;44.07;21.90;;;4.50;98.30;;;;;;5148204;23;20452;-81
2021/01/19 03:44:27;;;;;;;37.63;21.20;;;4.50;98.30;;;;;;5149868;23;20445;-81
2021/01/19 03:46:29;;;;;;;38.17;21.73;;;4.50;98.30;;;;;;5150091;23;20511;-81
2021/01/19 03:48:34;;;;;;;41.58;23.00;;;4.60;98.30;;;;;;5150994;23;20536;-81
2021/01/19 03:50:36;;;;;;;35.78;20.05;;;4.60;98.30;;;;;;5154211;23;20915;-81
2021/01/19 03:52:46;;;;;;;37.50;21.20;;;4.50;98.30;;;;;;5152469;23;20504;-80
2021/01/19 03:54:50;;;;;;;43.03;21.97;;;4.60;98.30;;;;;;5149754;23;20447;-80
2021/01/19 03:56:52;;;;;;;43.03;24.43;;;4.60;98.30;;;;;;5148643;23;20465;-80
2021/01/19 03:58:55;;;;;;;41.40;22.77;;;4.60;98.30;;;;;;5140258;23;21305;-80
2021/01/19 04:00:57;;;;;;;33.93;19.87;;;4.50;98.30;;;;;;5148129;23;20519;-80
2021/01/19 04:02:59;;;;;;;40.63;20.50;;;4.60;98.30;;;;;;5148491;23;20449;-80
2021/01/19 04:05:03;;;;;;;47.73;23.07;;;4.60;98.30;;;;;;5149101;23;20484;-80
2021/01/19 04:07:14;;;;;;;32.38;17.00;;;4.60;98.30;;;;;;5149336;23;20452;-80
2021/01/19 04:09:20;;;;;;;49.07;22.97;;;4.60;98.30;;;;;;5149290;23;20209;-80
2021/01/19 04:11:28;;;;;;;41.72;22.10;;;4.60;98.30;;;;;;5150081;23;20834;-80
2021/01/19 04:13:33;;;;;;;38.27;20.70;;;4.60;98.30;;;;;;5149223;23;20204;-80
2021/01/19 04:15:36;;;;;;;40.47;21.70;;;4.60;98.30;;;;;;5148764;23;20499;-81
2021/01/19 04:17:38;;;;;;;41.13;21.73;;;4.60;98.30;;;;;;5149388;23;20473;-81
2021/01/19 04:19:43;;;;;;;36.15;21.15;;;4.60;98.30;;;;;;5148601;23;20445;-81
2021/01/19 04:21:49;;;;;;;41.23;22.50;;;4.60;98.30;;;;;;5148981;23;20246;-81
2021/01/19 04:27:27;;;;;;;36.33;20.97;;;4.60;98.30;;;;;;5148395;23;20685;-82
2021/01/19 04:29:48;;;;;;;46.80;26.33;;;4.60;98.30;;;;;;5148356;23;20495;-79
2021/01/19 04:32:14;;;;;;;37.65;20.08;;;4.60;98.30;;;;;;5148996;23;20449;-80
2021/01/19 04:34:19;;;;;;;39.03;20.95;;;4.60;98.30;;;;;;5148587;23;20216;-81
2021/01/19 04:36:30;;;;;;;46.65;23.85;;;4.60;98.30;;;;;;5149387;23;20245;-81
2021/01/19 04:38:37;;;;;;;51.65;20.25;;;4.60;98.30;;;;;;5148937;23;20201;-80
2021/01/19 04:40:43;;;;;;;42.70;21.60;;;4.60;98.30;;;;;;5148848;23;20284;-80
2021/01/19 04:43:11;;;;;;;42.83;20.88;;;4.60;98.30;;;;;;5148463;23;20939;-80
2021/01/19 04:45:16;;;;;;;38.38;19.92;;;4.60;98.30;;;;;;5149061;23;20197;-80
2021/01/19 04:47:19;;;;;;;46.47;22.60;;;4.60;98.30;;;;;;5149374;23;20272;-80
2021/01/19 04:49:24;;;;;;;36.03;20.77;;;4.60;98.30;;;;;;5148510;23;20511;-80
2021/01/19 04:51:35;;;;;;;39.70;19.92;;;4.60;98.30;;;;;;5149406;23;20996;-80
2021/01/19 04:53:43;;;;;;;38.72;20.75;;;4.60;98.30;;;;;;5148587;23;20225;-80
2021/01/19 04:55:59;;;;;;;33.67;18.37;;;4.50;98.30;;;;;;5149579;23;20240;-81
2021/01/19 04:58:04;;;;;;;35.00;18.63;;;4.50;98.30;;;;;;5148901;23;20456;-80
2021/01/19 05:00:10;;;;;;;31.42;17.75;;;4.50;98.30;;;;;;5148810;23;20241;-80
2021/01/19 05:03:04;;;;;;;34.50;19.23;;;4.50;98.30;;;;;;5149139;23;20220;-80
2021/01/19 05:05:22;;;;;;;36.03;20.17;;;4.40;98.30;;;;;;5149537;23;20240;-80
2021/01/19 05:07:32;;;;;;;32.03;18.52;;;4.40;98.30;;;;;;5149167;23;20941;-80
2021/01/19 05:10:10;;;;;;;37.25;18.88;;;4.40;98.30;;;;;;5148740;23;20201;-81
2021/01/19 05:12:24;;;;;;;30.85;17.48;;;4.40;98.30;;;;;;5149154;23;20284;-82
2021/01/19 05:19:27;;;;;;;26.40;16.10;;;4.30;98.30;;;;;;5162059;22;20219;-80
2021/01/19 05:24:14;;;;;;;32.63;21.15;;;4.20;98.30;;;;;;5149444;23;20217;-82
2021/01/19 05:26:18;;;;;;;26.17;16.88;;;4.20;98.30;;;;;;5149773;23;20743;-82
2021/01/19 05:28:27;;;;;;;25.85;16.50;;;4.10;98.30;;;;;;5150903;23;20256;-82
2021/01/19 05:30:30;;;;;;;25.45;14.73;;;4.00;98.30;;;;;;5150733;23;20576;-83
2021/01/19 05:32:37;;;;;;;26.52;15.40;;;4.00;98.30;;;;;;5151145;23;20202;-82
2021/01/19 05:34:40;;;;;;;22.90;14.13;;;4.00;98.30;;;;;;5150161;23;20205;-82
2021/01/19 05:36:46;;;;;;;20.13;10.80;;;4.00;98.30;;;;;;5150763;23;20256;-82
2021/01/19 05:38:49;;;;;;;26.42;14.20;;;3.90;98.30;;;;;;5151063;23;20277;-83
2021/01/19 05:40:51;;;;;;;17.50;10.35;;;3.90;98.30;;;;;;5151255;23;20272;-81
2021/01/19 05:42:54;;;;;;;17.58;10.93;;;3.90;98.30;;;;;;5150931;23;20198;-82
2021/01/19 05:44:56;;;;;;;26.55;13.50;;;3.90;98.30;;;;;;5151526;23;20281;-83
2021/01/19 05:47:04;;;;;;;21.83;13.50;;;3.90;98.30;;;;;;5151279;23;20198;-82
2021/01/19 05:49:07;;;;;;;24.67;12.88;;;3.90;98.30;;;;;;5150195;23;20716;-82
2021/01/19 05:51:13;;;;;;;25.75;12.73;;;3.90;98.30;;;;;;5150628;23;20277;-82
2021/01/19 05:53:15;;;;;;;23.75;12.48;;;3.90;98.30;;;;;;5150276;23;20201;-81
2021/01/19 05:55:26;;;;;;;17.52;11.45;;;3.80;98.30;;;;;;5150215;23;20212;-81
2021/01/19 05:57:28;;;;;;;23.05;14.63;;;3.80;98.30;;;;;;5150868;23;20206;-82
2021/01/19 05:59:35;;;;;;;20.55;11.68;;;3.80;98.30;;;;;;5149580;23;20225;-82
2021/01/19 06:01:37;;;;;;;23.23;13.73;;;3.80;98.30;;;;;;5149248;23;20202;-81
2021/01/19 06:03:55;;;;;;;21.02;10.90;;;3.70;98.30;;;;;;5148641;23;20205;-81
2021/01/19 06:05:57;;;;;;;24.55;13.68;;;3.80;98.30;;;;;;5148747;23;20210;-81
2021/01/19 06:08:03;;;;;;;24.35;13.38;;;3.70;98.30;;;;;;5148598;23;20905;-81
2021/01/19 06:10:10;;;;;;;18.33;12.75;;;3.70;98.30;;;;;;5148452;23;20216;-81
2021/01/19 06:12:13;;;;;;;16.75;9.88;;;3.70;98.30;;;;;;5148984;23;20644;-81
2021/01/19 06:14:21;;;;;;;16.98;10.05;;;3.70;98.30;;;;;;5148657;23;20212;-81
2021/01/19 06:16:24;;;;;;;17.77;12.10;;;3.70;98.30;;;;;;5149315;23;20231;-81
2021/01/19 06:18:36;;;;;;;20.70;12.73;;;3.70;98.30;;;;;;5149254;23;20892;-82
2021/01/19 06:20:42;;;;;;;20.30;12.80;;;3.70;98.30;;;;;;5148647;23;20201;-81
2021/01/19 06:22:44;;;;;;;19.42;10.18;;;3.60;98.30;;;;;;5149167;23;20208;-81
2021/01/19 06:24:48;;;;;;;21.30;11.70;;;3.60;98.30;;;;;;5149399;23;20768;-81
2021/01/19 06:26:50;;;;;;;22.15;13.45;;;3.60;98.30;;;;;;5149060;23;20759;-81
2021/01/19 06:28:52;;;;;;;18.95;11.18;;;3.60;98.30;;;;;;5148983;23;20216;-82
2021/01/19 06:30:55;;;;;;;17.75;10.73;;;3.60;98.30;;;;;;5149548;23;20673;-82
2021/01/19 06:33:01;;;;;;;17.38;8.52;;;3.60;98.30;;;;;;5151002;23;20236;-81
2021/01/19 06:35:11;;;;;;;19.13;11.23;;;3.60;98.30;;;;;;5142931;23;20259;-81
2021/01/19 06:37:25;;;;;;;21.60;12.45;;;3.50;98.30;;;;;;5150937;23;20223;-82
2021/01/19 06:39:30;;;;;;;19.98;11.60;;;3.50;98.30;;;;;;5151306;23;20224;-81
2021/01/19 06:41:38;;;;;;;19.67;12.90;;;3.50;98.30;;;;;;5151001;23;20205;-83
2021/01/19 06:43:45;;;;;;;15.27;10.98;;;3.50;98.30;;;;;;5144136;23;20209;-82
2021/01/19 06:45:49;;;;;;;18.02;12.35;;;3.50;98.30;;;;;;5151711;23;20966;-82
2021/01/19 06:47:53;;;;;;;23.13;13.70;;;3.50;98.30;;;;;;5153257;23;20265;-82
2021/01/19 06:49:55;;;;;;;19.58;11.50;;;3.50;98.30;;;;;;5144610;23;20646;-81
2021/01/19 06:52:04;;;;;;;15.48;9.30;;;3.40;98.30;;;;;;5144752;23;20209;-81
2021/01/19 06:54:08;;;;;;;21.02;11.50;;;3.40;98.30;;;;;;5152169;23;20653;-82
2021/01/19 06:56:15;;;;;;;20.35;12.23;;;3.40;98.30;;;;;;5153226;23;20206;-82
2021/01/19 06:58:38;;;;;;;18.13;11.23;;;3.50;98.30;;;;;;5153131;23;20591;-82
2021/01/19 07:00:41;;;;;;;19.65;13.93;;;3.50;98.30;;;;;;5152201;23;20220;-82
2021/01/19 07:02:44;;;;;;;21.65;12.75;;;3.40;98.30;;;;;;5153078;23;20206;-82
2021/01/19 07:04:48;;;;;;;18.10;12.05;;;3.40;98.30;;;;;;5144447;23;20201;-82
2021/01/19 07:07:18;;;;;;;16.27;10.30;;;3.40;98.30;;;;;;5153463;23;20201;-82
2021/01/19 07:10:14;;;;;;;19.27;13.80;;;3.40;98.30;;;;;;5140865;23;20265;-83
2021/01/19 07:12:20;;;;;;;19.52;12.93;;;3.40;98.30;;;;;;5079976;23;20286;-82
2021/01/19 07:14:37;;;;;;;21.33;14.52;;;3.40;98.30;;;;;;5151748;23;20558;-82
2021/01/19 07:16:56;;;;;;;20.15;14.32;;;3.40;98.30;;;;;;5152319;23;20558;-82
2021/01/19 07:19:17;;;;;;;21.48;14.70;;;3.40;98.30;;;;;;5152473;23;20271;-82
2021/01/19 07:21:29;;;;;;;19.02;13.07;;;3.40;98.30;;;;;;5145205;23;20300;-82
2021/01/19 07:24:13;;;;;;;19.60;13.20;;;3.40;98.30;;;;;;5153152;23;20208;-81
2021/01/19 07:26:17;;;;;;;22.02;13.27;;;3.40;98.30;;;;;;5072811;23;20210;-81
2021/01/19 07:28:19;;;;;;;20.70;14.30;;;3.40;98.30;;;;;;5144560;23;20206;-81
2021/01/19 07:30:23;;;;;;;19.15;14.40;;;3.40;98.30;;;;;;5153286;23;20293;-81
2021/01/19 07:32:31;;;;;;;20.42;13.57;;;3.40;98.30;;;;;;5152510;23;20202;-83
2021/01/19 07:34:38;;;;;;;20.77;14.73;;;3.40;98.30;;;;;;5144657;23;20263;-82
2021/01/19 07:36:40;;;;;;;22.15;13.70;;;3.40;98.30;;;;;;5152010;23;20210;-82
2021/01/19 07:38:45;;;;;;;19.35;12.75;;;3.40;98.30;;;;;;5153163;23;20275;-85
2021/01/19 07:40:47;;;;;;;26.58;12.48;;;3.50;98.30;;;;;;5156769;23;20232;-81
2021/01/19 07:42:49;;;;;;;21.90;12.00;;;3.50;98.30;;;;;;5156991;23;20201;-81
2021/01/19 07:44:56;;;;;;;21.35;13.55;;;3.60;98.30;;;;;;5157030;23;20244;-82
2021/01/19 07:47:14;;;;;;;21.65;16.17;;;3.60;98.30;;;;;;5156616;23;20201;-82
2021/01/19 07:49:17;;;;;;;17.67;12.80;;;3.60;98.30;;;;;;5153156;23;20198;-82
2021/01/19 07:51:19;;;;;;;23.02;14.65;;;3.50;98.30;;;;;;5145110;23;20248;-82
2021/01/19 07:53:25;;;;;;;18.95;13.90;;;3.50;98.30;;;;;;5153415;23;20285;-82
2021/01/19 07:55:30;;;;;;;18.23;12.57;;;3.50;98.30;;;;;;5153859;23;20730;-82
2021/01/19 07:57:32;;;;;;;23.35;15.68;;;3.50;98.30;;;;;;5153658;23;20233;-82
2021/01/19 07:59:35;;;;;;;24.20;15.55;;;3.50;98.30;;;;;;5145425;23;20202;-82
2021/01/19 08:01:40;;;;;;;20.08;13.05;;;3.40;98.30;;;;;;5146091;23;20209;-83
2021/01/19 08:03:43;;;;;;;21.10;12.70;;;3.40;98.30;;;;;;5147866;23;20712;-83
2021/01/19 08:05:45;;;;;;;18.90;13.82;;;3.40;98.30;;;;;;5155477;23;20213;-82
2021/01/19 08:07:49;;;;;;;20.55;13.13;;;3.40;98.30;;;;;;5146648;23;20229;-82
2021/01/19 08:09:52;;;;;;;19.67;12.90;;;3.40;98.30;;;;;;5156626;23;20722;-82
2021/01/19 08:12:06;;;;;;;19.23;11.90;;;3.40;98.30;;;;;;5160398;23;20202;-82
2021/01/19 08:14:10;;;;;;;17.30;13.02;;;3.40;98.30;;;;;;5158480;23;20280;-82
2021/01/19 08:16:27;;;;;;;21.55;13.68;;;3.40;98.30;;;;;;5144158;23;20269;-82
2021/01/19 08:18:37;;;;;;;20.88;13.10;;;3.40;98.30;;;;;;5152539;23;20258;-82
2021/01/19 08:20:41;;;;;;;18.60;12.25;;;3.40;98.30;;;;;;5153463;23;20194;-82
2021/01/19 08:22:43;;;;;;;16.42;10.32;;;3.40;98.30;;;;;;5144479;23;20206;-83
2021/01/19 08:24:45;;;;;;;15.77;11.55;;;3.40;98.30;;;;;;5144749;23;20858;-82
2021/01/19 08:26:48;;;;;;;18.77;11.68;;;3.40;98.30;;;;;;5144226;23;20210;-81
2021/01/19 08:29:06;;;;;;;20.33;15.95;;;3.30;98.30;;;;;;5151221;23;20202;-82
2021/01/19 08:31:14;;;;;;;19.02;13.70;;;3.30;98.30;;;;;;5152282;23;20518;-82
2021/01/19 08:33:18;;;;;;;17.13;11.95;;;3.40;98.30;;;;;;5144513;23;20208;-81
2021/01/19 08:35:25;;;;;;;20.35;13.73;;;3.30;98.30;;;;;;5151428;23;20205;-81
2021/01/19 08:37:29;;;;;;;15.50;10.85;;;3.40;98.30;;;;;;5143528;23;20530;-80
2021/01/19 08:39:42;;;;;;;17.08;11.63;;;3.40;98.30;;;;;;5151177;23;20680;-80
2021/01/19 08:41:55;;;;;;;19.63;13.63;;;3.30;98.30;;;;;;5143975;23;20205;-82
2021/01/19 08:44:07;;;;;;;17.98;11.93;;;3.30;98.30;;;;;;5152130;23;20317;-83
2021/01/19 08:46:14;;;;;;;19.50;12.80;;;3.30;98.30;;;;;;5151664;23;20202;-82
2021/01/19 08:48:37;;;;;;;20.35;12.90;;;3.40;98.30;;;;;;5152354;23;20197;-82
2021/01/19 08:50:42;;;;;;;14.68;10.65;;;3.40;98.30;;;;;;5134447;23;20271;-83
2021/01/19 08:52:45;;;;;;;15.55;9.43;;;3.40;98.30;;;;;;5152257;23;20260;-82
2021/01/19 08:54:47;;;;;;;12.35;8.05;;;3.40;98.30;;;;;;5153140;23;20215;-82
2021/01/19 08:56:49;;;;;;;16.42;9.57;;;3.40;98.30;;;;;;5153204;23;20525;-84
2021/01/19 08:59:00;;;;;;;15.73;10.07;;;3.40;98.30;;;;;;5145012;23;20220;-83
2021/01/19 09:01:10;;;;;;;13.57;9.32;;;3.40;98.30;;;;;;5153735;23;20198;-81
2021/01/19 09:03:16;;;;;;;13.13;8.93;;;3.40;98.30;;;;;;5153391;23;20208;-82
2021/01/19 09:05:40;;;;;;;15.88;10.30;;;3.40;98.30;;;;;;5144286;23;20221;-82
2021/01/19 09:07:42;;;;;;;11.55;8.30;;;3.40;98.30;;;;;;5152744;23;20213;-82
2021/01/19 09:09:48;;;;;;;14.63;9.27;;;3.40;98.30;;;;;;5153117;23;20260;-81
2021/01/19 09:11:51;;;;;;;11.02;7.30;;;3.40;98.30;;;;;;5152837;23;20206;-82
2021/01/19 09:14:01;;;;;;;11.23;7.95;;;3.40;98.30;;;;;;5153080;23;20209;-83
2021/01/19 09:16:04;;;;;;;10.95;6.95;;;3.40;98.30;;;;;;5153973;23;20205;-81
2021/01/19 09:18:11;;;;;;;10.95;6.95;;;3.30;98.30;;;;;;5149362;23;20264;-82
2021/01/19 09:20:13;;;;;;;11.18;8.25;;;3.40;98.30;;;;;;5146167;23;20212;-82
2021/01/19 09:22:26;;;;;;;10.65;8.43;;;3.40;98.30;;;;;;5152475;23;20198;-82
2021/01/19 09:24:36;;;;;;;11.05;8.35;;;3.40;98.30;;;;;;5152185;23;20209;-82
2021/01/19 09:26:55;;;;;;;11.75;7.13;;;3.40;98.30;;;;;;5141964;23;20213;-81
2021/01/19 09:29:05;;;;;;;9.70;6.70;;;3.40;98.30;;;;;;5149891;23;20225;-84
2021/01/19 10:29:36;;;;;;;8.07;6.22;;;3.30;98.30;;;;;;5073224;23;20176;-82
2021/01/19 11:16:28;;;;;;;13.63;8.50;;;3.60;98.30;;;;;;4746567;25;20730;-80
2021/01/19 11:36:01;;;;;;;9.10;6.78;;;3.90;98.30;;;;;;4799973;24;20197;-79
2021/01/19 11:38:05;;;;;;;10.48;7.10;;;3.90;98.30;;;;;;4796124;24;20738;-79
2021/01/19 11:40:08;;;;;;;8.45;6.35;;;3.90;98.30;;;;;;4850898;24;20207;-79
2021/01/19 11:42:13;;;;;;;10.38;7.20;;;4.00;98.30;;;;;;4886305;24;20206;-78
2021/01/19 11:44:27;;;;;;;8.50;6.10;;;4.10;98.30;;;;;;4886345;24;20597;-79
2021/01/19 11:46:31;;;;;;;12.30;6.72;;;4.10;98.30;;;;;;4887614;24;20214;-79
2021/01/19 11:48:33;;;;;;;9.67;7.20;;;4.20;98.30;;;;;;4879964;24;20215;-79
2021/01/19 11:50:35;;;;;;;10.27;6.70;;;4.20;98.30;;;;;;4886895;24;20560;-79
2021/01/19 11:52:39;;;;;;;7.50;6.20;;;4.20;98.30;;;;;;4880342;24;20467;-80
2021/01/19 11:54:49;;;;;;;8.52;6.82;;;4.30;98.30;;;;;;4887345;24;20468;-79
2021/01/19 11:56:52;;;;;;;9.97;6.53;;;4.30;98.30;;;;;;5007794;23;20244;-79
2021/01/19 11:58:54;;;;;;;12.00;8.45;;;4.30;98.30;;;;;;5075372;23;20763;-79
2021/01/19 12:00:59;;;;;;;10.70;7.05;;;4.30;98.30;;;;;;5075476;23;20668;-79
2021/01/19 12:03:03;;;;;;;9.50;7.30;;;4.40;98.30;;;;;;5075574;23;20247;-79
2021/01/19 12:05:16;;;;;;;12.13;7.57;;;4.40;98.30;;;;;;5066827;23;20294;-79
2021/01/19 12:07:20;;;;;;;9.18;6.95;;;4.50;98.30;;;;;;5075808;23;20482;-80
2021/01/19 12:09:23;;;;;;;10.27;7.65;;;4.50;98.30;;;;;;5098153;23;20553;-80
2021/01/19 12:11:26;;;;;;;12.60;7.60;;;4.50;98.30;;;;;;5152559;23;20202;-81
2021/01/19 12:13:28;;;;;;;11.27;8.35;;;4.50;98.30;;;;;;5153303;23;20515;-80
2021/01/19 12:15:30;;;;;;;14.82;7.72;;;4.60;98.30;;;;;;5151975;23;20202;-80
2021/01/19 12:17:32;;;;;;;11.77;7.67;;;4.50;98.30;;;;;;5152467;23;20534;-80
2021/01/19 12:19:35;;;;;;;11.07;7.23;;;4.60;98.30;;;;;;5152915;23;20456;-81
2021/01/19 12:21:38;;;;;;;10.37;7.27;;;4.60;98.30;;;;;;5152823;23;20507;-81
2021/01/19 12:23:49;;;;;;;10.00;7.20;;;4.60;98.30;;;;;;5152835;23;20783;-81
2021/01/19 12:25:56;;;;;;;11.20;7.87;;;4.60;98.30;;;;;;5150804;23;20974;-81
2021/01/19 12:28:02;;;;;;;10.80;6.97;;;4.60;98.30;;;;;;5150562;23;20448;-81
2021/01/19 12:30:09;;;;;;;13.68;10.52;;;4.60;98.30;;;;;;5149801;23;20429;-80
2021/01/19 12:32:12;;;;;;;12.65;9.43;;;4.70;98.30;;;;;;5152067;23;20204;-81
2021/01/19 12:34:32;;;;;;;10.37;7.70;;;4.70;98.30;;;;;;5150062;23;20234;-81
2021/01/19 12:36:38;;;;;;;11.47;8.50;;;4.70;98.30;;;;;;5149918;23;20524;-81
2021/01/19 12:38:45;;;;;;;12.20;8.07;;;4.70;98.30;;;;;;5150015;23;21002;-81
2021/01/19 12:40:48;;;;;;;10.10;7.77;;;4.70;98.30;;;;;;5149811;23;20528;-81
2021/01/19 12:42:54;;;;;;;12.97;7.97;;;4.70;98.30;;;;;;5149278;23;20473;-80
2021/01/19 12:44:56;;;;;;;12.27;8.47;;;4.70;98.30;;;;;;5148465;23;20532;-80
2021/01/19 12:47:09;;;;;;;13.43;8.30;;;4.70;98.30;;;;;;5149520;23;20456;-81
2021/01/19 12:49:15;;;;;;;8.17;6.63;;;4.70;98.30;;;;;;5150691;23;20456;-81
2021/01/19 12:51:21;;;;;;;11.77;7.97;;;4.70;98.30;;;;;;5142491;23;20469;-81
2021/01/19 12:53:23;;;;;;;10.40;7.57;;;4.80;98.30;;;;;;5150950;23;20448;-81
2021/01/19 12:55:41;;;;;;;9.43;6.63;;;4.80;98.30;;;;;;5150251;23;20487;-80
2021/01/19 12:57:49;;;;;;;10.30;7.45;;;4.80;98.30;;;;;;5142056;23;20433;-80
2021/01/19 12:59:52;;;;;;;10.43;7.33;;;4.80;98.30;;;;;;5149948;23;20212;-81
2021/01/19 13:02:01;;;;;;;10.83;7.60;;;4.80;98.30;;;;;;5150654;23;20449;-80
2021/01/19 13:04:04;;;;;;;11.30;8.20;;;4.80;98.30;;;;;;5150189;23;20473;-81
2021/01/19 13:06:11;;;;;;;9.83;7.70;;;4.80;98.30;;;;;;5149639;23;20782;-81
2021/01/19 13:08:21;;;;;;;12.27;8.57;;;4.80;98.30;;;;;;5150127;23;20445;-81
2021/01/19 13:10:27;;;;;;;11.20;7.97;;;4.90;98.30;;;;;;5142781;23;21113;-81
2021/01/19 13:12:37;;;;;;;11.30;7.70;;;4.90;98.30;;;;;;5142715;23;20488;-81
2021/01/19 13:14:39;;;;;;;8.37;6.20;;;4.90;98.30;;;;;;5150773;23;20779;-81
2021/01/19 13:16:45;;;;;;;11.83;8.60;;;4.90;98.30;;;;;;5150644;23;21029;-81
2021/01/19 13:18:49;;;;;;;9.40;6.70;;;4.90;98.30;;;;;;5150844;23;20485;-81
2021/01/19 13:20:55;;;;;;;10.53;8.13;;;4.90;98.30;;;;;;5151701;23;20446;-82